Time;durP1;ratioP1;P1;durP2;ratioP2;P2;SDS_P1;SDS_P2;PMS_P1;PMS_P2;Temp;Humidity;BMP_temperature;BMP_pressure;BME280_temperature;BME280_humidity;BME280_pressure;Samples;Min_cycle;Max_cycle;Signal;HPM_P1;HPM_P2
2022/02/19 00:03:37;;;;;;;1.50;0.70;;;17.40;63.40;;;;;;10436310;28;20216;-67
2022/02/19 00:08:59;;;;;;;2.23;0.90;;;17.40;64.20;;;;;;10455425;28;20568;-67
2022/02/19 00:14:22;;;;;;;2.23;0.90;;;17.40;63.40;;;;;;10455484;28;20715;-67
2022/02/19 00:19:44;;;;;;;1.10;0.60;;;17.40;63.50;;;;;;10455673;28;20663;-67
2022/02/19 00:25:07;;;;;;;2.00;0.83;;;17.40;63.60;;;;;;10439363;28;20220;-67
2022/02/19 00:30:30;;;;;;;2.27;0.80;;;17.40;63.40;;;;;;10455207;28;20197;-67
2022/02/19 00:35:53;;;;;;;0.90;0.63;;;17.40;63.40;;;;;;10420318;28;20224;-67
2022/02/19 00:41:15;;;;;;;1.97;0.83;;;17.40;63.40;;;;;;10431934;23;20229;-68
2022/02/19 00:46:39;;;;;;;1.27;0.90;;;17.40;63.50;;;;;;10405738;28;20270;-67
2022/02/19 00:52:01;;;;;;;2.47;0.87;;;17.40;63.60;;;;;;10411810;28;20229;-66
2022/02/19 00:57:23;;;;;;;4.27;0.90;;;17.40;63.60;;;;;;10411453;28;20217;-65
2022/02/19 01:02:47;;;;;;;1.83;0.70;;;17.40;63.50;;;;;;10413140;28;20230;-66
2022/02/19 01:08:09;;;;;;;2.03;0.80;;;17.40;63.30;;;;;;10371171;28;20237;-68
2022/02/19 01:13:31;;;;;;;2.30;0.70;;;17.40;63.50;;;;;;10389577;28;20217;-66
2022/02/19 01:18:55;;;;;;;2.93;1.00;;;17.40;63.10;;;;;;10410665;28;20214;-67
2022/02/19 01:24:17;;;;;;;2.40;0.90;;;17.40;63.20;;;;;;10410670;28;20201;-67
2022/02/19 01:29:39;;;;;;;2.37;0.90;;;17.40;63.30;;;;;;10414667;28;20221;-68
2022/02/19 01:35:03;;;;;;;3.07;1.00;;;17.40;63.20;;;;;;10410589;28;20217;-66
2022/02/19 01:40:25;;;;;;;2.53;0.80;;;17.40;63.20;;;;;;10411238;28;20226;-65
2022/02/19 01:45:48;;;;;;;2.00;0.80;;;17.30;63.00;;;;;;10410747;28;20568;-66
2022/02/19 01:51:11;;;;;;;2.00;0.90;;;17.40;63.20;;;;;;10388788;28;20595;-66
2022/02/19 01:56:34;;;;;;;1.67;0.80;;;17.40;63.20;;;;;;10369028;28;20569;-68
2022/02/19 02:01:56;;;;;;;2.13;0.73;;;17.40;63.10;;;;;;10370911;28;20194;-69
2022/02/19 02:07:21;;;;;;;2.13;0.97;;;17.30;63.30;;;;;;10376312;28;20659;-68
2022/02/19 02:12:44;;;;;;;3.87;1.03;;;17.40;63.30;;;;;;10403059;28;20217;-68
2022/02/19 02:18:06;;;;;;;1.30;0.70;;;17.40;63.30;;;;;;10407037;28;20256;-68
2022/02/19 02:23:31;;;;;;;1.00;0.60;;;17.40;63.20;;;;;;10410512;28;20197;-68
2022/02/19 02:28:53;;;;;;;2.07;0.90;;;17.40;63.00;;;;;;10408555;28;20680;-70
2022/02/19 02:34:15;;;;;;;2.30;0.87;;;17.40;63.00;;;;;;10410769;28;20222;-72
2022/02/19 02:39:40;;;;;;;2.50;0.90;;;17.40;63.00;;;;;;10405740;28;20233;-69
2022/02/19 02:45:03;;;;;;;2.50;1.03;;;17.30;63.00;;;;;;10412974;28;20279;-67
2022/02/19 02:50:25;;;;;;;1.00;0.60;;;17.30;63.10;;;;;;10413108;28;20619;-67
2022/02/19 02:55:48;;;;;;;0.97;0.63;;;17.30;63.10;;;;;;10417117;28;20229;-70
2022/02/19 03:01:10;;;;;;;1.60;0.57;;;17.40;63.20;;;;;;10415956;28;20687;-67
2022/02/19 03:06:33;;;;;;;1.70;0.63;;;17.30;63.30;;;;;;10416510;28;20201;-69
2022/02/19 03:11:56;;;;;;;2.07;0.60;;;17.30;63.30;;;;;;10410775;28;20206;-67
2022/02/19 03:17:18;;;;;;;1.20;0.43;;;17.40;63.30;;;;;;10417107;28;20700;-67
2022/02/19 03:22:40;;;;;;;1.27;0.70;;;17.30;63.30;;;;;;10415007;28;20196;-67
2022/02/19 03:28:04;;;;;;;1.83;0.50;;;17.40;63.30;;;;;;10416058;28;20210;-66
2022/02/19 03:33:26;;;;;;;1.13;0.60;;;17.30;63.30;;;;;;10377034;28;20215;-66
2022/02/19 03:38:48;;;;;;;1.43;0.70;;;17.30;63.40;;;;;;10404748;28;20589;-67
2022/02/19 03:44:12;;;;;;;1.50;0.67;;;17.30;63.30;;;;;;10416391;28;20186;-67
2022/02/19 03:49:34;;;;;;;1.27;0.60;;;17.30;63.40;;;;;;10414772;28;20209;-67
2022/02/19 03:54:56;;;;;;;0.97;0.60;;;17.30;63.40;;;;;;10415290;28;20719;-75
2022/02/19 04:00:19;;;;;;;1.27;0.57;;;17.40;63.40;;;;;;10415029;28;20700;-68
2022/02/19 04:05:42;;;;;;;1.23;0.60;;;17.30;63.40;;;;;;10415423;28;20273;-68
2022/02/19 04:11:04;;;;;;;1.33;0.60;;;17.30;63.40;;;;;;10410971;28;20217;-70
2022/02/19 04:16:28;;;;;;;1.13;0.70;;;17.30;63.40;;;;;;10414248;28;20185;-66
2022/02/19 04:21:50;;;;;;;1.37;0.70;;;17.40;63.40;;;;;;10371537;28;20190;-67
2022/02/19 04:27:12;;;;;;;2.13;0.67;;;17.30;63.30;;;;;;10375584;28;20218;-67
2022/02/19 04:32:35;;;;;;;1.67;0.63;;;17.30;63.30;;;;;;10373551;28;20221;-67
2022/02/19 04:37:58;;;;;;;0.80;0.43;;;17.40;63.30;;;;;;10393052;28;20253;-70
2022/02/19 04:43:20;;;;;;;0.50;0.40;;;17.30;63.30;;;;;;10414515;28;20244;-70
2022/02/19 04:48:44;;;;;;;1.90;0.80;;;17.30;63.30;;;;;;10400731;28;20593;-67
2022/02/19 04:54:06;;;;;;;1.23;0.53;;;17.30;63.30;;;;;;10394384;28;20221;-67
2022/02/19 04:59:28;;;;;;;1.47;0.70;;;17.30;63.20;;;;;;10413357;28;20225;-66
2022/02/19 05:04:51;;;;;;;1.33;0.50;;;17.30;63.30;;;;;;10412840;28;20205;-67
2022/02/19 05:10:14;;;;;;;1.80;0.60;;;17.30;63.40;;;;;;10404423;28;20223;-67
2022/02/19 05:15:37;;;;;;;1.37;0.43;;;17.30;63.40;;;;;;10411991;28;20723;-67
2022/02/19 05:21:00;;;;;;;1.03;0.50;;;17.30;63.40;;;;;;10412467;28;20221;-72
2022/02/19 05:26:22;;;;;;;1.10;0.60;;;17.30;63.40;;;;;;10412032;28;20193;-67
2022/02/19 05:31:44;;;;;;;1.00;0.33;;;17.30;63.40;;;;;;10411648;28;20218;-70
2022/02/19 05:37:08;;;;;;;1.27;0.50;;;17.30;63.40;;;;;;10369834;28;20233;-67
2022/02/19 05:42:30;;;;;;;1.07;0.43;;;17.30;63.30;;;;;;10407546;28;20564;-67
2022/02/19 05:47:52;;;;;;;0.90;0.60;;;17.40;63.30;;;;;;10396230;28;20257;-69
2022/02/19 05:53:15;;;;;;;0.80;0.50;;;17.30;63.30;;;;;;10407696;28;20222;-67
2022/02/19 05:58:37;;;;;;;1.00;0.50;;;17.30;63.30;;;;;;10407234;28;20221;-68
2022/02/19 06:03:59;;;;;;;1.13;0.50;;;17.40;63.40;;;;;;10405747;28;20189;-68
2022/02/19 06:09:23;;;;;;;1.13;0.33;;;17.40;63.30;;;;;;10399230;28;20736;-67
2022/02/19 06:14:45;;;;;;;0.37;0.30;;;17.40;63.30;;;;;;10405593;28;20213;-66
2022/02/19 06:20:08;;;;;;;0.60;0.40;;;17.40;63.30;;;;;;10406484;28;20221;-67
2022/02/19 06:25:31;;;;;;;0.70;0.30;;;17.40;63.30;;;;;;10409385;28;20198;-71
2022/02/19 06:30:54;;;;;;;0.60;0.30;;;17.40;63.30;;;;;;10409483;28;20819;-68
2022/02/19 06:36:16;;;;;;;0.67;0.30;;;17.40;63.30;;;;;;10408400;28;20217;-65
2022/02/19 06:41:39;;;;;;;0.70;0.40;;;17.30;63.30;;;;;;10404780;28;20592;-67
2022/02/19 06:47:01;;;;;;;1.10;0.60;;;17.40;63.30;;;;;;10405567;28;20197;-69
2022/02/19 06:52:23;;;;;;;0.60;0.40;;;17.40;63.40;;;;;;10404381;28;20209;-71
2022/02/19 06:57:49;;;;;;;0.70;0.47;;;17.40;63.30;;;;;;10401252;28;20236;-66
2022/02/19 07:03:11;;;;;;;0.73;0.30;;;17.30;63.20;;;;;;10402891;28;20578;-67
2022/02/19 07:08:34;;;;;;;0.53;0.30;;;17.40;63.20;;;;;;10389363;28;20225;-70
2022/02/19 07:13:57;;;;;;;0.80;0.50;;;17.40;63.20;;;;;;10409377;28;20214;-66
2022/02/19 07:19:20;;;;;;;0.37;0.23;;;17.40;63.20;;;;;;10410012;28;20233;-70
2022/02/19 07:24:42;;;;;;;0.97;0.30;;;17.30;63.20;;;;;;10412352;28;20200;-66
2022/02/19 07:30:07;;;;;;;0.67;0.40;;;17.40;63.20;;;;;;10400422;28;20613;-69
2022/02/19 07:35:29;;;;;;;2.00;0.40;;;17.40;63.20;;;;;;10416316;28;20225;-64
2022/02/19 07:40:51;;;;;;;1.33;0.30;;;17.30;63.20;;;;;;10415853;28;20604;-66
2022/02/19 07:46:15;;;;;;;0.30;0.20;;;17.30;63.20;;;;;;10415379;28;20190;-65
2022/02/19 08:02:57;;;;;;;0.83;0.30;;;17.30;60.90;;;;;;10415292;28;20186;-69
2022/02/19 08:08:20;;;;;;;3.87;0.40;;;17.30;62.30;;;;;;10410230;28;20229;-65
2022/02/19 08:13:42;;;;;;;0.83;0.40;;;17.30;62.70;;;;;;10377650;28;20205;-65
2022/02/19 08:19:06;;;;;;;0.27;0.23;;;17.30;62.70;;;;;;10409906;28;20582;-67
2022/02/19 08:24:28;;;;;;;1.30;0.47;;;17.30;62.80;;;;;;10403963;28;20196;-66
2022/02/19 08:29:50;;;;;;;0.47;0.30;;;17.30;62.90;;;;;;10370565;28;20218;-65
2022/02/19 08:35:13;;;;;;;0.93;0.30;;;17.30;62.90;;;;;;10373042;28;20214;-65
2022/02/19 08:40:36;;;;;;;0.60;0.30;;;17.30;62.90;;;;;;10397941;28;20647;-67
2022/02/19 08:45:58;;;;;;;1.63;0.50;;;17.30;62.90;;;;;;10413898;28;20186;-65
2022/02/19 08:51:22;;;;;;;1.10;0.40;;;17.30;62.90;;;;;;10406008;28;20230;-72
2022/02/19 08:56:47;;;;;;;0.77;0.20;;;17.30;62.90;;;;;;10408389;28;20693;-65
2022/02/19 09:02:10;;;;;;;0.70;0.40;;;17.30;63.00;;;;;;10397290;28;20799;-67
2022/02/19 09:07:34;;;;;;;0.70;0.30;;;17.30;63.00;;;;;;10409648;28;20584;-68
2022/02/19 09:12:57;;;;;;;0.97;0.50;;;17.30;63.70;;;;;;10412277;28;20241;-66
2022/02/19 09:18:19;;;;;;;0.80;0.30;;;17.30;63.20;;;;;;10412214;28;20315;-65
2022/02/19 09:23:42;;;;;;;1.13;0.53;;;17.30;63.10;;;;;;10413534;28;20603;-66
2022/02/19 09:29:04;;;;;;;1.07;0.53;;;17.30;63.10;;;;;;10404102;28;20691;-65
2022/02/19 09:34:26;;;;;;;1.83;0.63;;;17.30;63.20;;;;;;10411585;28;20214;-65
2022/02/19 09:39:50;;;;;;;4.63;0.70;;;17.30;63.10;;;;;;10411879;28;20226;-65
2022/02/19 09:45:12;;;;;;;2.40;0.73;;;17.30;63.30;;;;;;10411294;28;20192;-66
2022/02/19 09:50:35;;;;;;;1.23;0.60;;;17.30;63.30;;;;;;10410588;28;20684;-65
2022/02/19 09:55:58;;;;;;;2.67;0.47;;;17.30;63.40;;;;;;10408393;28;20609;-66
2022/02/19 10:01:22;;;;;;;2.90;0.67;;;17.30;63.50;;;;;;10408211;28;20217;-64
2022/02/19 10:06:44;;;;;;;7.30;1.30;;;17.30;63.60;;;;;;10411028;28;20759;-67
2022/02/19 10:12:11;;;;;;;2.17;0.70;;;17.30;63.50;;;;;;10409593;28;20193;-68
2022/02/19 10:17:39;;;;;;;2.33;0.73;;;17.40;63.40;;;;;;10411288;28;20232;-65
2022/02/19 10:23:13;;;;;;;3.27;0.73;;;17.40;63.30;;;;;;10410971;28;20182;-65
2022/02/19 10:28:36;;;;;;;2.47;1.10;;;17.40;62.30;;;;;;10410669;28;20241;-66
2022/02/19 10:34:05;;;;;;;3.17;1.30;;;17.30;62.60;;;;;;10410028;28;20209;-68
2022/02/19 10:39:28;;;;;;;4.57;1.43;;;17.30;62.90;;;;;;10415193;28;20355;-66
2022/02/19 10:44:52;;;;;;;1.80;1.00;;;17.30;63.10;;;;;;10411615;28;20268;-66
2022/02/19 10:50:18;;;;;;;3.37;1.20;;;17.30;63.20;;;;;;10402280;23;20233;-67
2022/02/19 10:55:42;;;;;;;2.67;1.10;;;17.30;63.20;;;;;;10381826;28;20438;-69
2022/02/19 11:01:21;;;;;;;3.30;1.13;;;17.80;61.90;;;;;;10314482;28;20211;-69
2022/02/19 11:06:44;;;;;;;2.13;1.10;;;17.60;62.60;;;;;;10305425;28;20207;-69
2022/02/19 11:12:06;;;;;;;4.70;1.13;;;17.50;63.20;;;;;;10335151;28;20202;-69
2022/02/19 11:17:30;;;;;;;3.57;1.20;;;17.50;63.20;;;;;;10334300;28;20728;-68
2022/02/19 11:22:54;;;;;;;2.37;1.17;;;17.50;63.30;;;;;;10357865;28;20549;-68
2022/02/19 11:28:16;;;;;;;3.17;1.40;;;17.50;63.30;;;;;;10343002;28;20680;-70
2022/02/19 11:33:42;;;;;;;2.87;1.20;;;17.50;63.30;;;;;;10294731;28;20223;-69
2022/02/19 11:39:06;;;;;;;2.37;1.20;;;17.50;63.20;;;;;;10292324;28;20274;-70
2022/02/19 11:44:28;;;;;;;2.93;1.40;;;17.50;63.20;;;;;;10330052;28;20187;-69
2022/02/19 11:50:22;;;;;;;2.70;1.27;;;17.60;63.20;;;;;;10343177;28;20241;-68
2022/02/19 11:55:45;;;;;;;3.23;1.30;;;17.60;63.00;;;;;;10362854;28;20219;-68
2022/02/19 12:01:12;;;;;;;3.27;1.30;;;17.50;63.10;;;;;;10352195;28;20195;-68
2022/02/19 12:06:35;;;;;;;3.60;1.40;;;17.50;62.90;;;;;;10333049;28;20283;-67
2022/02/19 12:12:07;;;;;;;1.67;0.97;;;17.50;63.00;;;;;;10321305;28;20192;-68
2022/02/19 12:17:45;;;;;;;3.67;1.10;;;17.50;62.90;;;;;;10293447;28;20215;-71
2022/02/19 12:23:10;;;;;;;3.47;1.30;;;17.50;62.80;;;;;;10311550;28;20289;-68
2022/02/19 12:28:33;;;;;;;4.13;1.20;;;17.50;63.00;;;;;;10332178;28;20571;-67
2022/02/19 12:33:55;;;;;;;2.80;1.10;;;17.50;63.10;;;;;;10332766;28;20222;-68
2022/02/19 12:39:19;;;;;;;2.67;1.20;;;17.50;63.10;;;;;;10333367;28;20249;-69
2022/02/19 12:44:41;;;;;;;3.40;1.20;;;17.50;63.00;;;;;;10331234;28;20192;-69
2022/02/19 12:50:04;;;;;;;4.57;2.03;;;17.50;63.10;;;;;;10331577;28;20223;-69
2022/02/19 12:55:27;;;;;;;5.77;2.47;;;17.50;63.10;;;;;;10340204;28;20223;-69
2022/02/19 13:00:53;;;;;;;4.47;3.37;;;17.50;63.10;;;;;;10309871;28;20223;-68
2022/02/19 13:06:16;;;;;;;7.60;4.00;;;17.50;63.20;;;;;;10323685;28;20195;-68
2022/02/19 13:11:41;;;;;;;5.77;4.67;;;17.50;63.20;;;;;;10339098;28;20555;-69
2022/02/19 13:17:05;;;;;;;7.53;4.97;;;17.50;63.20;;;;;;10331036;28;20246;-69
2022/02/19 13:22:27;;;;;;;10.40;6.27;;;17.50;63.30;;;;;;10331478;28;20223;-69
2022/02/19 13:27:51;;;;;;;11.80;6.70;;;17.50;63.30;;;;;;10325574;28;20226;-69
2022/02/19 13:33:14;;;;;;;10.07;6.57;;;17.50;63.30;;;;;;10330846;28;20573;-68
2022/02/19 13:38:36;;;;;;;10.70;7.03;;;17.50;63.30;;;;;;10331442;28;20215;-69
2022/02/19 13:44:03;;;;;;;9.47;6.93;;;17.50;63.30;;;;;;10331971;28;20654;-69
2022/02/19 13:49:35;;;;;;;12.30;7.87;;;17.50;63.30;;;;;;10329981;28;20254;-68
2022/02/19 13:55:08;;;;;;;9.90;7.23;;;17.60;63.30;;;;;;10337996;28;20229;-68
2022/02/19 14:00:33;;;;;;;10.47;7.10;;;17.60;63.20;;;;;;10330498;28;20218;-68
2022/02/19 14:05:55;;;;;;;9.93;7.20;;;17.50;63.30;;;;;;10330015;28;20206;-69
2022/02/19 14:11:23;;;;;;;9.50;7.10;;;17.50;63.20;;;;;;10327961;28;20210;-68
2022/02/19 14:16:47;;;;;;;10.13;7.33;;;17.60;63.20;;;;;;10328682;28;20219;-68
2022/02/19 14:22:10;;;;;;;8.83;6.07;;;17.50;63.20;;;;;;10329894;28;20210;-68
2022/02/19 14:27:48;;;;;;;9.33;6.73;;;17.50;63.20;;;;;;10326934;28;20300;-68
2022/02/19 14:33:12;;;;;;;8.47;6.87;;;17.60;63.10;;;;;;10337970;28;20198;-67
2022/02/19 14:38:36;;;;;;;8.33;5.87;;;17.50;63.20;;;;;;10377756;28;20218;-68
2022/02/19 14:43:58;;;;;;;8.27;5.97;;;17.50;63.20;;;;;;10359910;28;20214;-69
2022/02/19 14:49:22;;;;;;;9.87;6.27;;;17.50;63.20;;;;;;10341849;28;20230;-69
2022/02/19 14:54:44;;;;;;;9.03;6.23;;;17.50;63.20;;;;;;10376035;28;20215;-68
2022/02/19 15:00:08;;;;;;;8.87;5.73;;;17.50;63.20;;;;;;10374708;28;20701;-68
2022/02/19 15:05:31;;;;;;;8.77;5.93;;;17.60;63.30;;;;;;10336981;28;20204;-68
2022/02/19 15:10:53;;;;;;;9.73;6.10;;;17.50;63.20;;;;;;10369639;23;20233;-69
2022/02/19 15:16:16;;;;;;;7.60;5.40;;;17.50;63.20;;;;;;10347839;28;20230;-68
2022/02/19 15:21:40;;;;;;;7.23;4.90;;;17.50;63.20;;;;;;10386446;28;20222;-68
2022/02/19 15:27:03;;;;;;;7.70;5.10;;;17.60;63.30;;;;;;10399565;28;20220;-67
2022/02/19 15:32:25;;;;;;;6.57;4.93;;;17.50;63.20;;;;;;10456496;23;20229;-69
2022/02/19 15:37:48;;;;;;;8.10;5.23;;;17.60;63.20;;;;;;10441768;28;20215;-69
2022/02/19 15:43:11;;;;;;;7.43;4.93;;;17.60;63.20;;;;;;10456434;28;20228;-68
2022/02/19 15:48:33;;;;;;;7.37;5.33;;;17.60;63.30;;;;;;10455323;28;20201;-68
2022/02/19 15:53:57;;;;;;;6.90;4.73;;;17.50;63.20;;;;;;10438824;28;20212;-68
2022/02/19 15:59:19;;;;;;;7.20;4.93;;;17.50;63.20;;;;;;10418902;28;20223;-69
2022/02/19 16:04:41;;;;;;;5.57;4.03;;;17.60;63.80;;;;;;10415261;28;20221;-69
2022/02/19 16:10:07;;;;;;;6.13;4.37;;;17.50;63.20;;;;;;10417634;28;20193;-69
2022/02/19 16:15:29;;;;;;;7.47;4.23;;;17.50;63.20;;;;;;10423723;28;20225;-69
2022/02/19 16:20:52;;;;;;;5.47;4.10;;;17.50;63.20;;;;;;10415472;28;20218;-69
2022/02/19 16:26:16;;;;;;;6.80;3.80;;;17.60;63.20;;;;;;10415462;28;20200;-69
2022/02/19 16:31:38;;;;;;;5.77;3.57;;;17.60;63.20;;;;;;10414199;28;20815;-69
2022/02/19 16:37:00;;;;;;;6.03;3.90;;;17.60;63.20;;;;;;10427067;28;20593;-69
2022/02/19 16:42:24;;;;;;;5.43;3.80;;;17.50;63.10;;;;;;10425598;28;20217;-69
2022/02/19 16:47:46;;;;;;;5.50;3.83;;;17.50;63.10;;;;;;10445096;28;20212;-68
2022/02/19 16:53:09;;;;;;;7.47;4.40;;;17.60;63.20;;;;;;10414634;28;20224;-69
2022/02/19 16:58:32;;;;;;;5.60;3.67;;;17.50;63.10;;;;;;10413267;28;20584;-68
2022/02/19 17:03:55;;;;;;;5.67;3.80;;;17.50;63.10;;;;;;10433059;28;20217;-72
2022/02/19 17:09:17;;;;;;;5.10;3.83;;;17.50;63.70;;;;;;10433920;28;20205;-72
2022/02/19 17:14:40;;;;;;;4.17;3.50;;;17.60;63.10;;;;;;10442071;28;20217;-72
2022/02/19 17:20:04;;;;;;;4.50;3.40;;;17.60;63.10;;;;;;10412841;28;20193;-72
2022/02/19 17:25:26;;;;;;;6.23;3.70;;;17.60;63.20;;;;;;10449749;28;20189;-72
2022/02/19 17:30:49;;;;;;;4.03;2.87;;;17.60;63.20;;;;;;10453986;28;20232;-73
2022/02/19 17:36:12;;;;;;;4.60;3.30;;;17.60;63.30;;;;;;10453766;28;20224;-72
2022/02/19 17:41:34;;;;;;;3.77;3.03;;;17.50;63.20;;;;;;10444415;28;20226;-72
2022/02/19 17:46:58;;;;;;;5.77;3.20;;;17.50;63.70;;;;;;10413013;28;20283;-72
2022/02/19 17:52:20;;;;;;;3.47;2.70;;;17.50;63.20;;;;;;10411364;28;20214;-72
2022/02/19 17:57:45;;;;;;;4.53;2.90;;;17.50;63.20;;;;;;10411568;28;20700;-72
2022/02/19 18:03:08;;;;;;;5.07;2.70;;;17.60;63.20;;;;;;10450082;28;20213;-72
2022/02/19 18:08:31;;;;;;;5.10;2.80;;;17.50;63.20;;;;;;10451293;28;20189;-72
2022/02/19 18:13:53;;;;;;;3.97;3.03;;;17.60;63.20;;;;;;10451015;28;20221;-72
2022/02/19 18:19:16;;;;;;;3.90;2.73;;;17.50;63.20;;;;;;10444187;28;20197;-72
2022/02/19 18:24:38;;;;;;;4.00;2.83;;;17.50;63.20;;;;;;10411714;28;20692;-72
2022/02/19 18:30:01;;;;;;;4.40;3.03;;;17.50;63.20;;;;;;10410135;28;20209;-71
2022/02/19 18:35:26;;;;;;;4.57;2.83;;;17.50;63.20;;;;;;10437424;28;20217;-71
2022/02/19 18:40:48;;;;;;;4.00;2.60;;;17.60;63.30;;;;;;10450000;28;20217;-72
2022/02/19 18:46:11;;;;;;;3.73;2.50;;;17.60;63.80;;;;;;10410552;28;20576;-72
2022/02/19 18:51:34;;;;;;;3.20;2.60;;;17.50;63.20;;;;;;10428547;28;20239;-71
2022/02/19 18:56:56;;;;;;;3.27;2.33;;;17.50;63.20;;;;;;10431632;28;20596;-72
2022/02/19 19:02:18;;;;;;;3.00;2.43;;;17.50;63.20;;;;;;10447983;28;20696;-72
2022/02/19 19:07:42;;;;;;;4.50;2.80;;;17.60;63.20;;;;;;10414546;28;20217;-72
2022/02/19 19:13:04;;;;;;;3.63;2.37;;;17.60;63.10;;;;;;10416406;28;20213;-72
2022/02/19 19:18:26;;;;;;;3.43;2.23;;;17.50;63.10;;;;;;10418779;28;20218;-73
2022/02/19 19:23:50;;;;;;;2.70;2.10;;;17.50;63.00;;;;;;10458171;28;20696;-72
2022/02/19 19:29:12;;;;;;;3.73;2.37;;;17.50;63.00;;;;;;10458714;28;20196;-72
2022/02/19 19:34:34;;;;;;;3.50;2.30;;;17.50;63.00;;;;;;10422618;28;20233;-72
2022/02/19 19:39:58;;;;;;;2.67;2.17;;;17.50;62.90;;;;;;10419818;28;20217;-72
2022/02/19 19:45:20;;;;;;;2.80;2.10;;;17.60;63.00;;;;;;10416751;28;20201;-74
2022/02/19 19:50:43;;;;;;;3.23;2.27;;;17.50;62.90;;;;;;10424749;28;20225;-72
2022/02/19 19:56:08;;;;;;;2.97;2.10;;;17.60;63.00;;;;;;10434637;28;20217;-73
2022/02/19 20:01:30;;;;;;;2.30;2.03;;;17.50;62.90;;;;;;10439285;28;20221;-73
2022/02/19 20:06:52;;;;;;;3.03;2.00;;;17.50;62.90;;;;;;10437924;28;20416;-72
2022/02/19 20:12:16;;;;;;;2.47;2.00;;;17.60;62.70;;;;;;10430644;28;20548;-74
2022/02/19 20:17:43;;;;;;;3.58;2.05;;;18.60;59.60;;;;;;10434670;28;20430;-71
2022/02/19 20:23:07;;;;;;;5.23;2.20;;;18.10;61.10;;;;;;10428836;28;20210;-71
2022/02/19 20:28:30;;;;;;;4.67;1.80;;;17.80;62.00;;;;;;10422183;28;20190;-70
2022/02/19 20:33:52;;;;;;;3.93;1.90;;;17.70;62.60;;;;;;10428855;28;20244;-70
2022/02/19 20:39:15;;;;;;;3.23;2.10;;;17.60;62.80;;;;;;10426455;28;20233;-71
2022/02/19 20:44:39;;;;;;;3.90;2.13;;;17.60;62.80;;;;;;10429999;28;20214;-70
2022/02/19 20:50:03;;;;;;;2.73;1.80;;;17.60;62.90;;;;;;10431107;28;20193;-69
2022/02/19 20:55:26;;;;;;;4.83;1.90;;;17.60;63.00;;;;;;10442889;28;20221;-70
2022/02/19 21:00:50;;;;;;;2.17;1.57;;;17.60;63.10;;;;;;10420241;28;20296;-70
2022/02/19 21:06:12;;;;;;;3.70;1.67;;;17.60;63.10;;;;;;10422661;28;20193;-70
2022/02/19 21:11:34;;;;;;;3.00;1.70;;;17.60;63.10;;;;;;10421619;28;20593;-70
2022/02/19 21:17:00;;;;;;;2.80;1.70;;;17.50;63.10;;;;;;10412702;28;20226;-70
2022/02/19 21:22:23;;;;;;;3.23;1.33;;;17.60;63.20;;;;;;10424368;28;20216;-70
2022/02/19 21:27:45;;;;;;;2.57;1.60;;;17.50;63.10;;;;;;10423165;28;20675;-70
2022/02/19 21:33:08;;;;;;;5.37;1.57;;;17.60;63.10;;;;;;10454707;23;20233;-63
2022/02/19 21:38:31;;;;;;;2.43;1.37;;;17.50;63.10;;;;;;10399705;28;20592;-63
2022/02/19 21:43:53;;;;;;;3.20;1.63;;;17.50;63.10;;;;;;10400165;28;20592;-63
2022/02/19 21:49:16;;;;;;;2.67;1.40;;;17.50;63.10;;;;;;10400663;28;20202;-63
2022/02/19 21:54:39;;;;;;;2.17;1.37;;;17.50;63.10;;;;;;10408355;28;20202;-64
2022/02/19 22:00:01;;;;;;;2.67;1.40;;;17.50;63.10;;;;;;10410706;28;20257;-63
2022/02/19 22:05:25;;;;;;;1.67;1.20;;;17.50;63.10;;;;;;10409639;28;20193;-64
2022/02/19 22:10:48;;;;;;;2.03;1.23;;;17.50;63.10;;;;;;10409159;28;20224;-64
2022/02/19 22:16:10;;;;;;;2.40;1.50;;;17.50;63.20;;;;;;10377538;28;20209;-64
2022/02/19 22:21:33;;;;;;;1.50;1.30;;;17.50;63.10;;;;;;10409046;28;20210;-64
2022/02/19 22:26:55;;;;;;;1.83;1.40;;;17.50;63.10;;;;;;10409896;28;20209;-64
2022/02/19 22:32:18;;;;;;;1.50;1.10;;;17.50;63.10;;;;;;10409022;28;20197;-64
2022/02/19 22:37:42;;;;;;;2.97;1.30;;;17.50;63.10;;;;;;10405537;28;20217;-63
2022/02/19 22:43:04;;;;;;;2.43;1.33;;;17.50;63.10;;;;;;10389564;28;20197;-63
2022/02/19 22:48:26;;;;;;;2.87;1.30;;;17.50;63.10;;;;;;10408776;28;20675;-64
2022/02/19 22:53:50;;;;;;;1.47;1.10;;;17.50;63.10;;;;;;10411072;28;20198;-64
2022/02/19 22:59:12;;;;;;;1.20;1.10;;;17.50;63.20;;;;;;10410999;28;20711;-64
2022/02/19 23:10:15;;;;;;;2.60;1.50;;;17.50;63.10;;;;;;10385478;28;20209;-64
2022/02/19 23:15:37;;;;;;;1.93;1.13;;;17.50;63.20;;;;;;10416409;28;20213;-64
2022/02/19 23:21:00;;;;;;;2.17;0.97;;;17.50;63.10;;;;;;10416623;28;20578;-63
2022/02/19 23:26:24;;;;;;;1.27;1.00;;;17.40;63.10;;;;;;10375821;28;20191;-63
2022/02/19 23:31:46;;;;;;;1.27;1.17;;;17.50;63.10;;;;;;10388056;28;20209;-63
2022/02/19 23:37:08;;;;;;;1.50;1.07;;;17.40;63.10;;;;;;10411108;28;20221;-63
2022/02/19 23:42:32;;;;;;;1.83;1.27;;;17.40;63.10;;;;;;10380196;28;20198;-63
2022/02/19 23:47:54;;;;;;;1.40;1.10;;;17.40;63.10;;;;;;10415428;28;20705;-63
2022/02/19 23:53:17;;;;;;;1.63;1.00;;;17.40;63.10;;;;;;10410627;28;20205;-63
2022/02/19 23:58:41;;;;;;;1.90;1.10;;;17.40;63.10;;;;;;10414467;28;20298;-63
